sensor_id;sensor_type;location;lat;lon;timestamp;P1;durP1;ratioP1;P2;durP2;ratioP2
49722;SDS011;43484;43.608;1.458;2024-02-23T00:17:43;16.25;;;1.92;;
49722;SDS011;43484;43.608;1.458;2024-02-23T00:20:10;18.63;;;2.80;;
49722;SDS011;43484;43.608;1.458;2024-02-23T00:22:38;21.67;;;2.40;;
49722;SDS011;43484;43.608;1.458;2024-02-23T00:25:04;12.38;;;1.52;;
49722;SDS011;43484;43.608;1.458;2024-02-23T00:35:06;17.40;;;2.30;;
49722;SDS011;43484;43.608;1.458;2024-02-23T00:47:27;15.02;;;1.63;;
49722;SDS011;43484;43.608;1.458;2024-02-23T00:49:54;17.60;;;2.40;;
49722;SDS011;43484;43.608;1.458;2024-02-23T00:59:49;14.18;;;2.65;;
49722;SDS011;43484;43.608;1.458;2024-02-23T01:02:16;13.05;;;1.60;;
49722;SDS011;43484;43.608;1.458;2024-02-23T01:12:24;17.95;;;2.15;;
49722;SDS011;43484;43.608;1.458;2024-02-23T01:22:17;22.50;;;2.67;;
49722;SDS011;43484;43.608;1.458;2024-02-23T01:24:44;15.00;;;1.95;;
49722;SDS011;43484;43.608;1.458;2024-02-23T01:38:13;22.02;;;2.17;;
49722;SDS011;43484;43.608;1.458;2024-02-23T01:40:45;13.23;;;1.88;;
49722;SDS011;43484;43.608;1.458;2024-02-23T01:43:12;19.38;;;2.45;;
49722;SDS011;43484;43.608;1.458;2024-02-23T01:45:39;17.15;;;2.67;;
49722;SDS011;43484;43.608;1.458;2024-02-23T01:48:06;16.55;;;2.30;;
49722;SDS011;43484;43.608;1.458;2024-02-23T01:50:33;16.95;;;2.58;;
49722;SDS011;43484;43.608;1.458;2024-02-23T01:53:01;18.48;;;1.90;;
49722;SDS011;43484;43.608;1.458;2024-02-23T01:55:29;22.00;;;2.83;;
49722;SDS011;43484;43.608;1.458;2024-02-23T01:58:01;15.85;;;2.65;;
49722;SDS011;43484;43.608;1.458;2024-02-23T02:00:31;19.25;;;2.05;;
49722;SDS011;43484;43.608;1.458;2024-02-23T02:02:58;13.68;;;1.60;;
49722;SDS011;43484;43.608;1.458;2024-02-23T02:05:25;16.27;;;2.20;;
49722;SDS011;43484;43.608;1.458;2024-02-23T02:07:53;15.52;;;1.50;;
49722;SDS011;43484;43.608;1.458;2024-02-23T02:10:25;21.70;;;2.17;;
49722;SDS011;43484;43.608;1.458;2024-02-23T02:12:53;15.75;;;2.95;;
49722;SDS011;43484;43.608;1.458;2024-02-23T02:15:19;17.85;;;2.20;;
49722;SDS011;43484;43.608;1.458;2024-02-23T02:17:48;19.58;;;2.40;;
49722;SDS011;43484;43.608;1.458;2024-02-23T02:20:15;20.27;;;2.85;;
49722;SDS011;43484;43.608;1.458;2024-02-23T02:22:45;19.10;;;2.22;;
49722;SDS011;43484;43.608;1.458;2024-02-23T02:25:13;21.75;;;1.92;;
49722;SDS011;43484;43.608;1.458;2024-02-23T02:27:42;13.93;;;1.60;;
49722;SDS011;43484;43.608;1.458;2024-02-23T02:30:12;16.45;;;1.73;;
49722;SDS011;43484;43.608;1.458;2024-02-23T02:32:39;14.50;;;1.75;;
49722;SDS011;43484;43.608;1.458;2024-02-23T02:35:06;15.63;;;1.95;;
49722;SDS011;43484;43.608;1.458;2024-02-23T02:37:33;10.63;;;2.22;;
49722;SDS011;43484;43.608;1.458;2024-02-23T02:40:01;15.77;;;1.67;;
49722;SDS011;43484;43.608;1.458;2024-02-23T02:42:29;9.60;;;2.03;;
49722;SDS011;43484;43.608;1.458;2024-02-23T02:44:55;15.35;;;2.35;;
49722;SDS011;43484;43.608;1.458;2024-02-23T02:47:22;15.73;;;1.83;;
49722;SDS011;43484;43.608;1.458;2024-02-23T02:49:49;14.82;;;1.75;;
49722;SDS011;43484;43.608;1.458;2024-02-23T02:52:16;11.65;;;1.45;;
49722;SDS011;43484;43.608;1.458;2024-02-23T02:54:42;14.93;;;2.30;;
49722;SDS011;43484;43.608;1.458;2024-02-23T02:57:09;12.80;;;1.85;;
49722;SDS011;43484;43.608;1.458;2024-02-23T02:59:36;13.63;;;1.50;;
49722;SDS011;43484;43.608;1.458;2024-02-23T03:02:02;17.00;;;1.65;;
49722;SDS011;43484;43.608;1.458;2024-02-23T03:04:29;13.18;;;2.35;;
49722;SDS011;43484;43.608;1.458;2024-02-23T03:06:56;16.83;;;1.60;;
49722;SDS011;43484;43.608;1.458;2024-02-23T03:09:22;19.23;;;2.20;;
49722;SDS011;43484;43.608;1.458;2024-02-23T03:11:49;13.00;;;1.48;;
49722;SDS011;43484;43.608;1.458;2024-02-23T03:14:16;19.27;;;2.55;;
49722;SDS011;43484;43.608;1.458;2024-02-23T03:16:44;8.32;;;1.20;;
49722;SDS011;43484;43.608;1.458;2024-02-23T03:19:14;8.57;;;1.23;;
49722;SDS011;43484;43.608;1.458;2024-02-23T03:21:42;14.07;;;1.40;;
49722;SDS011;43484;43.608;1.458;2024-02-23T03:24:08;7.03;;;0.82;;
49722;SDS011;43484;43.608;1.458;2024-02-23T03:26:35;11.05;;;1.27;;
49722;SDS011;43484;43.608;1.458;2024-02-23T03:29:01;11.63;;;1.40;;
49722;SDS011;43484;43.608;1.458;2024-02-23T03:31:28;11.85;;;1.52;;
49722;SDS011;43484;43.608;1.458;2024-02-23T03:33:55;18.83;;;1.42;;
49722;SDS011;43484;43.608;1.458;2024-02-23T03:36:21;12.18;;;1.55;;
49722;SDS011;43484;43.608;1.458;2024-02-23T03:38:48;10.18;;;1.65;;
49722;SDS011;43484;43.608;1.458;2024-02-23T03:41:15;12.07;;;1.55;;
49722;SDS011;43484;43.608;1.458;2024-02-23T03:43:42;10.02;;;1.10;;
49722;SDS011;43484;43.608;1.458;2024-02-23T03:46:08;9.45;;;1.38;;
49722;SDS011;43484;43.608;1.458;2024-02-23T03:48:35;15.68;;;1.55;;
49722;SDS011;43484;43.608;1.458;2024-02-23T03:51:03;10.93;;;1.45;;
49722;SDS011;43484;43.608;1.458;2024-02-23T03:53:31;14.45;;;1.75;;
49722;SDS011;43484;43.608;1.458;2024-02-23T03:55:58;6.55;;;0.93;;
49722;SDS011;43484;43.608;1.458;2024-02-23T03:58:24;10.55;;;1.52;;
49722;SDS011;43484;43.608;1.458;2024-02-23T04:00:52;6.55;;;0.93;;
49722;SDS011;43484;43.608;1.458;2024-02-23T04:03:18;9.43;;;0.95;;
49722;SDS011;43484;43.608;1.458;2024-02-23T04:05:45;9.20;;;1.17;;
49722;SDS011;43484;43.608;1.458;2024-02-23T04:08:12;8.30;;;0.68;;
49722;SDS011;43484;43.608;1.458;2024-02-23T04:10:39;6.00;;;0.90;;
49722;SDS011;43484;43.608;1.458;2024-02-23T04:13:05;8.35;;;1.02;;
49722;SDS011;43484;43.608;1.458;2024-02-23T04:15:32;7.63;;;0.93;;
49722;SDS011;43484;43.608;1.458;2024-02-23T04:17:59;9.75;;;0.73;;
49722;SDS011;43484;43.608;1.458;2024-02-23T04:20:25;6.00;;;1.30;;
49722;SDS011;43484;43.608;1.458;2024-02-23T04:22:52;9.68;;;0.98;;
49722;SDS011;43484;43.608;1.458;2024-02-23T04:25:19;7.55;;;1.05;;
49722;SDS011;43484;43.608;1.458;2024-02-23T04:27:45;10.35;;;1.30;;
49722;SDS011;43484;43.608;1.458;2024-02-23T04:30:12;2.15;;;0.60;;
49722;SDS011;43484;43.608;1.458;2024-02-23T04:32:39;9.80;;;0.80;;
49722;SDS011;43484;43.608;1.458;2024-02-23T04:35:06;6.55;;;0.75;;
49722;SDS011;43484;43.608;1.458;2024-02-23T04:37:33;5.05;;;0.77;;
49722;SDS011;43484;43.608;1.458;2024-02-23T04:40:03;5.55;;;0.80;;
49722;SDS011;43484;43.608;1.458;2024-02-23T04:42:32;5.47;;;0.63;;
49722;SDS011;43484;43.608;1.458;2024-02-23T04:44:58;6.43;;;0.70;;
49722;SDS011;43484;43.608;1.458;2024-02-23T04:47:25;4.07;;;0.80;;
49722;SDS011;43484;43.608;1.458;2024-02-23T04:49:52;3.67;;;0.65;;
49722;SDS011;43484;43.608;1.458;2024-02-23T04:52:19;6.97;;;0.52;;
49722;SDS011;43484;43.608;1.458;2024-02-23T04:54:46;6.50;;;0.52;;
49722;SDS011;43484;43.608;1.458;2024-02-23T04:57:13;5.85;;;0.60;;
49722;SDS011;43484;43.608;1.458;2024-02-23T04:59:39;5.40;;;0.80;;
49722;SDS011;43484;43.608;1.458;2024-02-23T05:02:06;7.22;;;0.50;;
49722;SDS011;43484;43.608;1.458;2024-02-23T05:04:32;6.10;;;0.65;;
49722;SDS011;43484;43.608;1.458;2024-02-23T05:06:59;4.57;;;0.82;;
49722;SDS011;43484;43.608;1.458;2024-02-23T05:09:27;4.75;;;0.60;;
49722;SDS011;43484;43.608;1.458;2024-02-23T05:11:54;4.03;;;0.70;;
49722;SDS011;43484;43.608;1.458;2024-02-23T05:14:21;4.43;;;0.50;;
49722;SDS011;43484;43.608;1.458;2024-02-23T05:16:48;4.40;;;0.57;;
49722;SDS011;43484;43.608;1.458;2024-02-23T05:19:14;3.95;;;0.45;;
49722;SDS011;43484;43.608;1.458;2024-02-23T05:21:41;3.95;;;0.57;;
49722;SDS011;43484;43.608;1.458;2024-02-23T05:24:08;5.68;;;0.50;;
49722;SDS011;43484;43.608;1.458;2024-02-23T05:26:34;4.60;;;0.40;;
49722;SDS011;43484;43.608;1.458;2024-02-23T05:29:01;2.78;;;0.60;;
49722;SDS011;43484;43.608;1.458;2024-02-23T05:31:43;4.43;;;0.55;;
49722;SDS011;43484;43.608;1.458;2024-02-23T05:34:14;3.38;;;0.73;;
49722;SDS011;43484;43.608;1.458;2024-02-23T05:36:41;4.80;;;0.40;;
49722;SDS011;43484;43.608;1.458;2024-02-23T05:39:09;4.13;;;0.47;;
49722;SDS011;43484;43.608;1.458;2024-02-23T05:41:36;3.05;;;0.98;;
49722;SDS011;43484;43.608;1.458;2024-02-23T05:44:03;4.75;;;1.08;;
49722;SDS011;43484;43.608;1.458;2024-02-23T05:46:32;7.45;;;0.60;;
49722;SDS011;43484;43.608;1.458;2024-02-23T05:48:59;4.55;;;0.30;;
49722;SDS011;43484;43.608;1.458;2024-02-23T05:51:27;4.43;;;0.60;;
49722;SDS011;43484;43.608;1.458;2024-02-23T05:53:55;2.17;;;0.30;;
49722;SDS011;43484;43.608;1.458;2024-02-23T05:56:23;4.20;;;0.47;;
49722;SDS011;43484;43.608;1.458;2024-02-23T05:58:51;4.28;;;0.85;;
49722;SDS011;43484;43.608;1.458;2024-02-23T06:01:18;5.25;;;0.80;;
49722;SDS011;43484;43.608;1.458;2024-02-23T06:03:45;3.55;;;0.60;;
49722;SDS011;43484;43.608;1.458;2024-02-23T06:06:12;6.05;;;0.77;;
49722;SDS011;43484;43.608;1.458;2024-02-23T06:08:39;1.83;;;0.40;;
49722;SDS011;43484;43.608;1.458;2024-02-23T06:11:05;3.03;;;0.47;;
49722;SDS011;43484;43.608;1.458;2024-02-23T06:13:33;3.60;;;0.77;;
49722;SDS011;43484;43.608;1.458;2024-02-23T06:16:00;3.30;;;0.47;;
49722;SDS011;43484;43.608;1.458;2024-02-23T06:18:27;7.95;;;0.40;;
49722;SDS011;43484;43.608;1.458;2024-02-23T06:20:53;4.28;;;0.68;;
49722;SDS011;43484;43.608;1.458;2024-02-23T06:23:20;4.57;;;1.10;;
49722;SDS011;43484;43.608;1.458;2024-02-23T06:25:48;4.40;;;0.68;;
49722;SDS011;43484;43.608;1.458;2024-02-23T06:28:15;5.40;;;0.50;;
49722;SDS011;43484;43.608;1.458;2024-02-23T06:30:42;6.28;;;0.88;;
49722;SDS011;43484;43.608;1.458;2024-02-23T06:33:08;3.78;;;0.55;;
49722;SDS011;43484;43.608;1.458;2024-02-23T06:35:35;5.72;;;1.33;;
49722;SDS011;43484;43.608;1.458;2024-02-23T06:38:02;2.25;;;0.68;;
49722;SDS011;43484;43.608;1.458;2024-02-23T06:40:28;3.22;;;0.60;;
49722;SDS011;43484;43.608;1.458;2024-02-23T06:43:11;3.90;;;1.00;;
49722;SDS011;43484;43.608;1.458;2024-02-23T06:45:38;7.22;;;0.70;;
49722;SDS011;43484;43.608;1.458;2024-02-23T06:48:04;7.28;;;0.82;;
49722;SDS011;43484;43.608;1.458;2024-02-23T06:50:32;2.92;;;0.50;;
49722;SDS011;43484;43.608;1.458;2024-02-23T06:52:59;2.83;;;0.60;;
49722;SDS011;43484;43.608;1.458;2024-02-23T06:55:25;2.17;;;0.57;;
49722;SDS011;43484;43.608;1.458;2024-02-23T06:57:52;5.13;;;0.60;;
49722;SDS011;43484;43.608;1.458;2024-02-23T07:00:20;4.13;;;0.77;;
49722;SDS011;43484;43.608;1.458;2024-02-23T07:02:47;6.78;;;0.80;;
49722;SDS011;43484;43.608;1.458;2024-02-23T07:05:14;10.95;;;1.08;;
49722;SDS011;43484;43.608;1.458;2024-02-23T07:07:41;9.18;;;0.50;;
49722;SDS011;43484;43.608;1.458;2024-02-23T07:10:07;3.55;;;0.60;;
49722;SDS011;43484;43.608;1.458;2024-02-23T07:12:35;3.30;;;0.50;;
49722;SDS011;43484;43.608;1.458;2024-02-23T07:15:01;2.95;;;0.68;;
49722;SDS011;43484;43.608;1.458;2024-02-23T07:17:28;3.25;;;0.60;;
49722;SDS011;43484;43.608;1.458;2024-02-23T07:19:55;2.65;;;0.50;;
49722;SDS011;43484;43.608;1.458;2024-02-23T07:22:29;3.70;;;0.60;;
49722;SDS011;43484;43.608;1.458;2024-02-23T07:24:55;4.97;;;0.50;;
49722;SDS011;43484;43.608;1.458;2024-02-23T07:27:22;3.75;;;0.40;;
49722;SDS011;43484;43.608;1.458;2024-02-23T07:29:49;3.92;;;0.95;;
49722;SDS011;43484;43.608;1.458;2024-02-23T07:32:15;2.53;;;0.47;;
49722;SDS011;43484;43.608;1.458;2024-02-23T07:34:43;5.18;;;0.70;;
49722;SDS011;43484;43.608;1.458;2024-02-23T07:37:09;2.28;;;0.80;;
49722;SDS011;43484;43.608;1.458;2024-02-23T07:39:36;3.95;;;0.40;;
49722;SDS011;43484;43.608;1.458;2024-02-23T07:42:02;4.13;;;0.80;;
49722;SDS011;43484;43.608;1.458;2024-02-23T07:44:30;2.17;;;0.30;;
49722;SDS011;43484;43.608;1.458;2024-02-23T07:46:56;4.53;;;0.50;;
49722;SDS011;43484;43.608;1.458;2024-02-23T07:49:25;2.90;;;0.50;;
49722;SDS011;43484;43.608;1.458;2024-02-23T07:51:54;2.20;;;0.20;;
49722;SDS011;43484;43.608;1.458;2024-02-23T07:54:21;2.35;;;0.30;;
49722;SDS011;43484;43.608;1.458;2024-02-23T07:56:47;1.85;;;0.30;;
49722;SDS011;43484;43.608;1.458;2024-02-23T07:59:14;2.03;;;0.38;;
49722;SDS011;43484;43.608;1.458;2024-02-23T08:01:41;2.97;;;0.40;;
49722;SDS011;43484;43.608;1.458;2024-02-23T08:04:07;2.25;;;0.30;;
49722;SDS011;43484;43.608;1.458;2024-02-23T08:06:34;1.23;;;0.30;;
49722;SDS011;43484;43.608;1.458;2024-02-23T08:09:01;5.10;;;0.70;;
49722;SDS011;43484;43.608;1.458;2024-02-23T08:11:28;5.65;;;0.60;;
49722;SDS011;43484;43.608;1.458;2024-02-23T08:13:57;4.20;;;0.40;;
49722;SDS011;43484;43.608;1.458;2024-02-23T08:16:24;2.17;;;0.50;;
49722;SDS011;43484;43.608;1.458;2024-02-23T08:18:52;3.92;;;0.40;;
49722;SDS011;43484;43.608;1.458;2024-02-23T08:21:18;5.28;;;0.52;;
49722;SDS011;43484;43.608;1.458;2024-02-23T08:23:45;1.58;;;0.47;;
49722;SDS011;43484;43.608;1.458;2024-02-23T08:26:13;4.95;;;0.77;;
49722;SDS011;43484;43.608;1.458;2024-02-23T08:28:39;2.75;;;0.40;;
49722;SDS011;43484;43.608;1.458;2024-02-23T08:31:06;4.78;;;0.60;;
49722;SDS011;43484;43.608;1.458;2024-02-23T08:33:33;6.55;;;0.70;;
49722;SDS011;43484;43.608;1.458;2024-02-23T08:35:59;7.40;;;0.60;;
49722;SDS011;43484;43.608;1.458;2024-02-23T08:38:26;6.00;;;1.50;;
49722;SDS011;43484;43.608;1.458;2024-02-23T08:40:53;6.30;;;0.63;;
49722;SDS011;43484;43.608;1.458;2024-02-23T08:43:20;3.67;;;0.60;;
49722;SDS011;43484;43.608;1.458;2024-02-23T08:45:46;7.10;;;0.60;;
49722;SDS011;43484;43.608;1.458;2024-02-23T08:48:13;4.82;;;0.52;;
49722;SDS011;43484;43.608;1.458;2024-02-23T08:50:41;4.78;;;0.70;;
49722;SDS011;43484;43.608;1.458;2024-02-23T08:53:08;4.93;;;0.80;;
49722;SDS011;43484;43.608;1.458;2024-02-23T08:55:35;7.07;;;0.70;;
49722;SDS011;43484;43.608;1.458;2024-02-23T08:58:01;5.32;;;0.82;;
49722;SDS011;43484;43.608;1.458;2024-02-23T09:00:28;4.22;;;0.60;;
49722;SDS011;43484;43.608;1.458;2024-02-23T09:02:55;0.90;;;0.32;;
49722;SDS011;43484;43.608;1.458;2024-02-23T09:05:21;4.80;;;0.52;;
49722;SDS011;43484;43.608;1.458;2024-02-23T09:07:48;5.65;;;0.50;;
49722;SDS011;43484;43.608;1.458;2024-02-23T09:10:15;4.68;;;0.50;;
49722;SDS011;43484;43.608;1.458;2024-02-23T09:12:42;3.28;;;0.50;;
49722;SDS011;43484;43.608;1.458;2024-02-23T09:15:09;5.88;;;0.80;;
49722;SDS011;43484;43.608;1.458;2024-02-23T09:17:35;5.00;;;0.50;;
49722;SDS011;43484;43.608;1.458;2024-02-23T09:20:02;2.72;;;0.68;;
49722;SDS011;43484;43.608;1.458;2024-02-23T09:22:29;6.82;;;0.50;;
49722;SDS011;43484;43.608;1.458;2024-02-23T09:24:56;9.82;;;0.50;;
49722;SDS011;43484;43.608;1.458;2024-02-23T09:27:23;3.35;;;0.70;;
49722;SDS011;43484;43.608;1.458;2024-02-23T09:29:49;7.88;;;1.05;;
49722;SDS011;43484;43.608;1.458;2024-02-23T09:32:16;1.75;;;0.47;;
49722;SDS011;43484;43.608;1.458;2024-02-23T09:34:43;5.82;;;0.50;;
49722;SDS011;43484;43.608;1.458;2024-02-23T09:37:10;3.20;;;0.40;;
49722;SDS011;43484;43.608;1.458;2024-02-23T09:39:37;4.10;;;0.50;;
49722;SDS011;43484;43.608;1.458;2024-02-23T09:42:04;4.47;;;0.88;;
49722;SDS011;43484;43.608;1.458;2024-02-23T09:44:36;3.50;;;0.40;;
49722;SDS011;43484;43.608;1.458;2024-02-23T09:47:04;4.28;;;0.40;;
49722;SDS011;43484;43.608;1.458;2024-02-23T09:49:37;3.92;;;0.45;;
49722;SDS011;43484;43.608;1.458;2024-02-23T09:52:05;3.63;;;1.20;;
49722;SDS011;43484;43.608;1.458;2024-02-23T09:54:34;3.95;;;0.50;;
49722;SDS011;43484;43.608;1.458;2024-02-23T09:57:02;2.47;;;0.77;;
49722;SDS011;43484;43.608;1.458;2024-02-23T09:59:33;4.90;;;0.50;;
49722;SDS011;43484;43.608;1.458;2024-02-23T10:02:02;2.08;;;0.52;;
49722;SDS011;43484;43.608;1.458;2024-02-23T10:04:34;2.60;;;0.30;;
49722;SDS011;43484;43.608;1.458;2024-02-23T10:07:02;3.50;;;0.57;;
49722;SDS011;43484;43.608;1.458;2024-02-23T10:09:31;4.75;;;0.75;;
49722;SDS011;43484;43.608;1.458;2024-02-23T10:11:58;3.67;;;0.40;;
49722;SDS011;43484;43.608;1.458;2024-02-23T10:14:24;2.45;;;0.40;;
49722;SDS011;43484;43.608;1.458;2024-02-23T10:16:52;0.82;;;0.38;;
49722;SDS011;43484;43.608;1.458;2024-02-23T10:19:20;3.72;;;0.40;;
49722;SDS011;43484;43.608;1.458;2024-02-23T10:21:47;2.92;;;0.40;;
49722;SDS011;43484;43.608;1.458;2024-02-23T10:24:17;4.72;;;0.57;;
49722;SDS011;43484;43.608;1.458;2024-02-23T10:26:44;5.90;;;0.35;;
49722;SDS011;43484;43.608;1.458;2024-02-23T10:29:11;2.20;;;0.68;;
49722;SDS011;43484;43.608;1.458;2024-02-23T10:31:41;4.03;;;0.60;;
49722;SDS011;43484;43.608;1.458;2024-02-23T10:34:11;1.45;;;0.30;;
49722;SDS011;43484;43.608;1.458;2024-02-23T10:36:41;3.03;;;0.63;;
49722;SDS011;43484;43.608;1.458;2024-02-23T10:39:12;2.47;;;0.40;;
49722;SDS011;43484;43.608;1.458;2024-02-23T10:44:19;3.58;;;0.40;;
49722;SDS011;43484;43.608;1.458;2024-02-23T10:46:46;2.88;;;0.35;;
49722;SDS011;43484;43.608;1.458;2024-02-23T10:49:14;2.17;;;0.20;;
49722;SDS011;43484;43.608;1.458;2024-02-23T10:51:42;2.10;;;0.25;;
49722;SDS011;43484;43.608;1.458;2024-02-23T10:54:12;4.75;;;0.90;;
49722;SDS011;43484;43.608;1.458;2024-02-23T10:56:39;4.95;;;0.85;;
49722;SDS011;43484;43.608;1.458;2024-02-23T10:59:07;1.55;;;0.63;;
49722;SDS011;43484;43.608;1.458;2024-02-23T11:01:35;2.58;;;0.45;;
49722;SDS011;43484;43.608;1.458;2024-02-23T11:04:03;2.38;;;0.40;;
49722;SDS011;43484;43.608;1.458;2024-02-23T11:06:33;2.72;;;0.57;;
49722;SDS011;43484;43.608;1.458;2024-02-23T11:09:06;3.05;;;0.55;;
49722;SDS011;43484;43.608;1.458;2024-02-23T11:11:34;2.65;;;0.50;;
49722;SDS011;43484;43.608;1.458;2024-02-23T11:14:03;11.43;;;0.63;;
49722;SDS011;43484;43.608;1.458;2024-02-23T11:16:38;3.42;;;0.38;;
49722;SDS011;43484;43.608;1.458;2024-02-23T11:19:09;3.30;;;0.43;;
49722;SDS011;43484;43.608;1.458;2024-02-23T11:21:38;1.42;;;0.82;;
49722;SDS011;43484;43.608;1.458;2024-02-23T11:24:05;2.58;;;0.20;;
49722;SDS011;43484;43.608;1.458;2024-02-23T11:26:32;1.58;;;0.57;;
49722;SDS011;43484;43.608;1.458;2024-02-23T11:29:10;2.92;;;0.60;;
49722;SDS011;43484;43.608;1.458;2024-02-23T11:31:44;3.28;;;0.40;;
49722;SDS011;43484;43.608;1.458;2024-02-23T11:34:12;4.75;;;0.60;;
49722;SDS011;43484;43.608;1.458;2024-02-23T11:36:39;1.50;;;0.35;;
49722;SDS011;43484;43.608;1.458;2024-02-23T11:39:05;3.25;;;0.30;;
49722;SDS011;43484;43.608;1.458;2024-02-23T11:41:32;2.55;;;0.50;;
49722;SDS011;43484;43.608;1.458;2024-02-23T11:44:00;4.10;;;0.65;;
49722;SDS011;43484;43.608;1.458;2024-02-23T11:46:26;1.65;;;0.43;;
49722;SDS011;43484;43.608;1.458;2024-02-23T11:48:53;5.65;;;0.50;;
49722;SDS011;43484;43.608;1.458;2024-02-23T11:51:21;2.47;;;0.60;;
49722;SDS011;43484;43.608;1.458;2024-02-23T11:53:49;1.73;;;0.40;;
49722;SDS011;43484;43.608;1.458;2024-02-23T11:56:18;5.25;;;0.45;;
49722;SDS011;43484;43.608;1.458;2024-02-23T11:58:46;3.75;;;0.57;;
49722;SDS011;43484;43.608;1.458;2024-02-23T12:01:13;5.60;;;0.65;;
49722;SDS011;43484;43.608;1.458;2024-02-23T12:03:40;3.58;;;0.55;;
49722;SDS011;43484;43.608;1.458;2024-02-23T12:06:10;1.35;;;0.52;;
49722;SDS011;43484;43.608;1.458;2024-02-23T12:08:37;1.98;;;0.30;;
49722;SDS011;43484;43.608;1.458;2024-02-23T12:11:05;4.53;;;0.60;;
49722;SDS011;43484;43.608;1.458;2024-02-23T12:13:35;4.72;;;0.75;;
49722;SDS011;43484;43.608;1.458;2024-02-23T12:16:02;4.35;;;0.70;;
49722;SDS011;43484;43.608;1.458;2024-02-23T12:18:29;4.85;;;1.15;;
49722;SDS011;43484;43.608;1.458;2024-02-23T12:21:08;3.55;;;1.00;;
49722;SDS011;43484;43.608;1.458;2024-02-23T12:23:41;2.15;;;0.50;;
49722;SDS011;43484;43.608;1.458;2024-02-23T12:26:10;2.08;;;0.30;;
49722;SDS011;43484;43.608;1.458;2024-02-23T12:28:40;1.90;;;0.50;;
49722;SDS011;43484;43.608;1.458;2024-02-23T12:31:07;1.38;;;0.40;;
49722;SDS011;43484;43.608;1.458;2024-02-23T12:33:34;1.77;;;0.40;;
49722;SDS011;43484;43.608;1.458;2024-02-23T12:36:04;2.42;;;0.40;;
49722;SDS011;43484;43.608;1.458;2024-02-23T12:38:31;5.38;;;0.40;;
49722;SDS011;43484;43.608;1.458;2024-02-23T12:41:01;2.75;;;0.40;;
49722;SDS011;43484;43.608;1.458;2024-02-23T12:43:29;1.38;;;0.38;;
49722;SDS011;43484;43.608;1.458;2024-02-23T12:45:56;0.45;;;0.30;;
49722;SDS011;43484;43.608;1.458;2024-02-23T12:48:23;0.80;;;0.17;;
49722;SDS011;43484;43.608;1.458;2024-02-23T12:50:51;0.50;;;0.25;;
49722;SDS011;43484;43.608;1.458;2024-02-23T12:53:31;4.03;;;0.30;;
49722;SDS011;43484;43.608;1.458;2024-02-23T12:56:06;1.52;;;0.45;;
49722;SDS011;43484;43.608;1.458;2024-02-23T12:58:41;0.30;;;0.20;;
49722;SDS011;43484;43.608;1.458;2024-02-23T13:01:08;2.00;;;0.93;;
49722;SDS011;43484;43.608;1.458;2024-02-23T13:03:36;1.95;;;0.55;;
49722;SDS011;43484;43.608;1.458;2024-02-23T13:06:05;1.92;;;0.40;;
49722;SDS011;43484;43.608;1.458;2024-02-23T13:08:32;1.92;;;0.50;;
49722;SDS011;43484;43.608;1.458;2024-02-23T13:10:59;4.57;;;0.63;;
49722;SDS011;43484;43.608;1.458;2024-02-23T13:13:25;2.75;;;0.30;;
49722;SDS011;43484;43.608;1.458;2024-02-23T13:15:52;2.33;;;0.40;;
49722;SDS011;43484;43.608;1.458;2024-02-23T13:18:19;3.67;;;0.50;;
49722;SDS011;43484;43.608;1.458;2024-02-23T13:20:46;8.07;;;1.10;;
49722;SDS011;43484;43.608;1.458;2024-02-23T13:23:13;2.22;;;0.30;;
49722;SDS011;43484;43.608;1.458;2024-02-23T13:25:43;3.17;;;0.40;;
49722;SDS011;43484;43.608;1.458;2024-02-23T13:28:10;1.48;;;0.30;;
49722;SDS011;43484;43.608;1.458;2024-02-23T13:30:37;4.13;;;0.35;;
49722;SDS011;43484;43.608;1.458;2024-02-23T13:33:04;2.85;;;0.43;;
49722;SDS011;43484;43.608;1.458;2024-02-23T13:35:33;1.90;;;0.40;;
49722;SDS011;43484;43.608;1.458;2024-02-23T13:38:00;2.63;;;0.30;;
49722;SDS011;43484;43.608;1.458;2024-02-23T13:40:30;1.30;;;0.20;;
49722;SDS011;43484;43.608;1.458;2024-02-23T13:42:58;6.47;;;0.75;;
49722;SDS011;43484;43.608;1.458;2024-02-23T13:45:24;4.97;;;0.50;;
49722;SDS011;43484;43.608;1.458;2024-02-23T13:47:58;0.93;;;0.30;;
49722;SDS011;43484;43.608;1.458;2024-02-23T13:50:27;3.63;;;0.70;;
49722;SDS011;43484;43.608;1.458;2024-02-23T13:52:54;0.52;;;0.20;;
49722;SDS011;43484;43.608;1.458;2024-02-23T13:55:21;2.58;;;0.52;;
49722;SDS011;43484;43.608;1.458;2024-02-23T13:57:48;2.72;;;0.40;;
49722;SDS011;43484;43.608;1.458;2024-02-23T14:00:16;3.25;;;0.35;;
49722;SDS011;43484;43.608;1.458;2024-02-23T14:02:44;4.78;;;1.05;;
49722;SDS011;43484;43.608;1.458;2024-02-23T14:05:11;0.93;;;0.20;;
49722;SDS011;43484;43.608;1.458;2024-02-23T14:07:39;4.07;;;0.28;;
49722;SDS011;43484;43.608;1.458;2024-02-23T14:10:06;3.00;;;0.68;;
49722;SDS011;43484;43.608;1.458;2024-02-23T14:12:33;0.75;;;0.20;;
49722;SDS011;43484;43.608;1.458;2024-02-23T14:15:00;3.10;;;0.45;;
49722;SDS011;43484;43.608;1.458;2024-02-23T14:17:28;0.93;;;0.25;;
49722;SDS011;43484;43.608;1.458;2024-02-23T14:19:54;0.93;;;0.30;;
49722;SDS011;43484;43.608;1.458;2024-02-23T14:22:22;0.70;;;0.20;;
49722;SDS011;43484;43.608;1.458;2024-02-23T14:24:49;0.40;;;0.20;;
49722;SDS011;43484;43.608;1.458;2024-02-23T14:27:16;1.08;;;0.25;;
49722;SDS011;43484;43.608;1.458;2024-02-23T14:29:42;1.58;;;0.28;;
49722;SDS011;43484;43.608;1.458;2024-02-23T14:32:09;1.90;;;0.20;;
49722;SDS011;43484;43.608;1.458;2024-02-23T14:34:41;2.00;;;0.30;;
49722;SDS011;43484;43.608;1.458;2024-02-23T14:37:08;0.98;;;0.35;;
49722;SDS011;43484;43.608;1.458;2024-02-23T14:39:34;2.20;;;0.35;;
49722;SDS011;43484;43.608;1.458;2024-02-23T14:42:01;1.00;;;0.30;;
49722;SDS011;43484;43.608;1.458;2024-02-23T14:44:29;2.47;;;0.45;;
49722;SDS011;43484;43.608;1.458;2024-02-23T14:46:56;2.50;;;0.32;;
49722;SDS011;43484;43.608;1.458;2024-02-23T14:49:22;1.27;;;0.25;;
49722;SDS011;43484;43.608;1.458;2024-02-23T14:51:50;3.22;;;0.40;;
49722;SDS011;43484;43.608;1.458;2024-02-23T14:54:17;4.40;;;0.28;;
49722;SDS011;43484;43.608;1.458;2024-02-23T14:56:43;3.88;;;0.95;;
49722;SDS011;43484;43.608;1.458;2024-02-23T14:59:10;2.00;;;0.20;;
49722;SDS011;43484;43.608;1.458;2024-02-23T15:01:37;1.40;;;0.40;;
49722;SDS011;43484;43.608;1.458;2024-02-23T15:04:04;1.15;;;0.20;;
49722;SDS011;43484;43.608;1.458;2024-02-23T15:06:32;1.08;;;0.28;;
49722;SDS011;43484;43.608;1.458;2024-02-23T15:08:59;0.40;;;0.30;;
49722;SDS011;43484;43.608;1.458;2024-02-23T15:11:26;1.60;;;0.28;;
49722;SDS011;43484;43.608;1.458;2024-02-23T15:13:53;1.05;;;0.30;;
49722;SDS011;43484;43.608;1.458;2024-02-23T15:16:24;2.03;;;0.40;;
49722;SDS011;43484;43.608;1.458;2024-02-23T15:18:52;1.55;;;0.10;;
49722;SDS011;43484;43.608;1.458;2024-02-23T15:21:19;1.85;;;0.20;;
49722;SDS011;43484;43.608;1.458;2024-02-23T15:23:46;5.00;;;0.43;;
49722;SDS011;43484;43.608;1.458;2024-02-23T15:26:13;3.60;;;0.70;;
49722;SDS011;43484;43.608;1.458;2024-02-23T15:28:40;0.73;;;0.20;;
49722;SDS011;43484;43.608;1.458;2024-02-23T15:31:07;1.70;;;0.20;;
49722;SDS011;43484;43.608;1.458;2024-02-23T15:33:34;0.63;;;0.22;;
49722;SDS011;43484;43.608;1.458;2024-02-23T15:36:05;2.00;;;0.22;;
49722;SDS011;43484;43.608;1.458;2024-02-23T15:38:35;2.38;;;0.60;;
49722;SDS011;43484;43.608;1.458;2024-02-23T15:41:03;0.88;;;0.50;;
49722;SDS011;43484;43.608;1.458;2024-02-23T15:43:30;2.70;;;0.30;;
49722;SDS011;43484;43.608;1.458;2024-02-23T15:45:57;2.15;;;0.60;;
49722;SDS011;43484;43.608;1.458;2024-02-23T15:48:24;1.48;;;0.50;;
49722;SDS011;43484;43.608;1.458;2024-02-23T15:50:52;0.90;;;0.20;;
49722;SDS011;43484;43.608;1.458;2024-02-23T15:53:39;4.05;;;0.45;;
49722;SDS011;43484;43.608;1.458;2024-02-23T15:56:06;2.95;;;0.47;;
49722;SDS011;43484;43.608;1.458;2024-02-23T15:58:33;1.92;;;0.43;;